sensor_id;sensor_type;location;lat;lon;timestamp;P1;durP1;ratioP1;P2;durP2;ratioP2
5955;SDS011;3004;48.080;11.600;2023-02-02T05:31:17;66.30;;;2.80;;
5955;SDS011;3004;48.080;11.600;2023-02-02T05:33:46;65.10;;;2.20;;
5955;SDS011;3004;48.080;11.600;2023-02-02T05:36:19;65.27;;;2.30;;
5955;SDS011;3004;48.080;11.600;2023-02-02T05:38:46;68.57;;;3.73;;
5955;SDS011;3004;48.080;11.600;2023-02-02T05:41:20;65.27;;;2.30;;
5955;SDS011;3004;48.080;11.600;2023-02-02T05:43:59;65.23;;;2.33;;
5955;SDS011;3004;48.080;11.600;2023-02-02T05:46:28;65.10;;;2.40;;
5955;SDS011;3004;48.080;11.600;2023-02-02T05:48:58;65.27;;;2.50;;
5955;SDS011;3004;48.080;11.600;2023-02-02T05:51:30;65.57;;;2.40;;
5955;SDS011;3004;48.080;11.600;2023-02-02T05:54:02;65.57;;;2.60;;
5955;SDS011;3004;48.080;11.600;2023-02-02T05:56:33;65.33;;;2.70;;
5955;SDS011;3004;48.080;11.600;2023-02-02T05:59:15;65.47;;;2.50;;
5955;SDS011;3004;48.080;11.600;2023-02-02T06:01:45;65.37;;;2.50;;
5955;SDS011;3004;48.080;11.600;2023-02-02T06:04:16;65.67;;;2.50;;
5955;SDS011;3004;48.080;11.600;2023-02-02T06:06:55;65.90;;;2.70;;
5955;SDS011;3004;48.080;11.600;2023-02-02T06:09:31;65.73;;;2.80;;
5955;SDS011;3004;48.080;11.600;2023-02-02T06:12:25;65.37;;;2.57;;
5955;SDS011;3004;48.080;11.600;2023-02-02T06:15:07;65.07;;;2.50;;
5955;SDS011;3004;48.080;11.600;2023-02-02T06:17:52;65.53;;;2.50;;
5955;SDS011;3004;48.080;11.600;2023-02-02T06:20:28;65.00;;;2.53;;
5955;SDS011;3004;48.080;11.600;2023-02-02T06:23:16;64.80;;;2.40;;
5955;SDS011;3004;48.080;11.600;2023-02-02T06:25:46;65.17;;;2.50;;
5955;SDS011;3004;48.080;11.600;2023-02-02T06:28:29;65.43;;;2.50;;
5955;SDS011;3004;48.080;11.600;2023-02-02T06:31:11;65.53;;;2.40;;
5955;SDS011;3004;48.080;11.600;2023-02-02T06:33:44;65.23;;;2.50;;
5955;SDS011;3004;48.080;11.600;2023-02-02T06:36:18;65.33;;;2.50;;
5955;SDS011;3004;48.080;11.600;2023-02-02T06:38:59;65.30;;;2.40;;
5955;SDS011;3004;48.080;11.600;2023-02-02T06:41:47;65.33;;;2.40;;
5955;SDS011;3004;48.080;11.600;2023-02-02T06:44:23;65.13;;;2.40;;
5955;SDS011;3004;48.080;11.600;2023-02-02T06:46:59;65.07;;;2.50;;
5955;SDS011;3004;48.080;11.600;2023-02-02T06:49:33;65.83;;;2.90;;
5955;SDS011;3004;48.080;11.600;2023-02-02T06:52:05;65.23;;;2.50;;
5955;SDS011;3004;48.080;11.600;2023-02-02T06:54:37;65.37;;;2.40;;
5955;SDS011;3004;48.080;11.600;2023-02-02T06:57:16;65.47;;;2.40;;
5955;SDS011;3004;48.080;11.600;2023-02-02T07:00:05;65.90;;;3.03;;
5955;SDS011;3004;48.080;11.600;2023-02-02T07:02:38;65.33;;;2.40;;
5955;SDS011;3004;48.080;11.600;2023-02-02T07:08:23;64.90;;;2.40;;
5955;SDS011;3004;48.080;11.600;2023-02-02T07:11:00;65.27;;;2.40;;
5955;SDS011;3004;48.080;11.600;2023-02-02T07:13:48;65.10;;;2.40;;
5955;SDS011;3004;48.080;11.600;2023-02-02T07:16:34;65.17;;;2.40;;
5955;SDS011;3004;48.080;11.600;2023-02-02T07:19:03;65.37;;;2.40;;
5955;SDS011;3004;48.080;11.600;2023-02-02T07:21:50;64.90;;;2.40;;
5955;SDS011;3004;48.080;11.600;2023-02-02T07:24:45;64.97;;;2.50;;
5955;SDS011;3004;48.080;11.600;2023-02-02T07:27:25;65.10;;;2.50;;
5955;SDS011;3004;48.080;11.600;2023-02-02T07:30:10;65.00;;;2.40;;
5955;SDS011;3004;48.080;11.600;2023-02-02T07:32:51;64.80;;;2.40;;
5955;SDS011;3004;48.080;11.600;2023-02-02T07:35:24;65.10;;;2.40;;
5955;SDS011;3004;48.080;11.600;2023-02-02T07:38:04;65.27;;;2.43;;
5955;SDS011;3004;48.080;11.600;2023-02-02T07:43:55;65.30;;;2.50;;
5955;SDS011;3004;48.080;11.600;2023-02-02T07:46:44;65.10;;;2.50;;
5955;SDS011;3004;48.080;11.600;2023-02-02T07:52:29;65.27;;;2.50;;
5955;SDS011;3004;48.080;11.600;2023-02-02T07:55:10;65.10;;;2.60;;
5955;SDS011;3004;48.080;11.600;2023-02-02T07:57:46;65.20;;;2.60;;
5955;SDS011;3004;48.080;11.600;2023-02-02T08:00:30;65.67;;;2.70;;
5955;SDS011;3004;48.080;11.600;2023-02-02T08:03:05;70.30;;;5.33;;
5955;SDS011;3004;48.080;11.600;2023-02-02T08:05:35;65.67;;;2.53;;
5955;SDS011;3004;48.080;11.600;2023-02-02T08:11:03;65.60;;;2.70;;
5955;SDS011;3004;48.080;11.600;2023-02-02T08:13:53;65.60;;;2.73;;
5955;SDS011;3004;48.080;11.600;2023-02-02T08:16:34;65.53;;;2.70;;
5955;SDS011;3004;48.080;11.600;2023-02-02T08:19:44;65.77;;;2.70;;
5955;SDS011;3004;48.080;11.600;2023-02-02T08:22:27;65.77;;;2.80;;
5955;SDS011;3004;48.080;11.600;2023-02-02T08:24:59;65.47;;;2.80;;
5955;SDS011;3004;48.080;11.600;2023-02-02T08:27:57;65.67;;;2.80;;
5955;SDS011;3004;48.080;11.600;2023-02-02T08:30:53;65.67;;;2.87;;
5955;SDS011;3004;48.080;11.600;2023-02-02T08:33:40;65.73;;;2.73;;
5955;SDS011;3004;48.080;11.600;2023-02-02T08:36:15;65.73;;;2.60;;
5955;SDS011;3004;48.080;11.600;2023-02-02T08:39:02;65.67;;;2.80;;
5955;SDS011;3004;48.080;11.600;2023-02-02T08:41:41;65.60;;;2.80;;
5955;SDS011;3004;48.080;11.600;2023-02-02T08:44:16;65.60;;;2.80;;
5955;SDS011;3004;48.080;11.600;2023-02-02T08:46:54;65.77;;;2.70;;
5955;SDS011;3004;48.080;11.600;2023-02-02T08:49:21;65.70;;;2.90;;
5955;SDS011;3004;48.080;11.600;2023-02-02T08:51:49;65.77;;;2.80;;
5955;SDS011;3004;48.080;11.600;2023-02-02T08:54:46;65.93;;;2.87;;
5955;SDS011;3004;48.080;11.600;2023-02-02T08:57:14;65.83;;;3.30;;
5955;SDS011;3004;48.080;11.600;2023-02-02T09:02:41;66.20;;;3.20;;
5955;SDS011;3004;48.080;11.600;2023-02-02T09:05:10;65.90;;;3.17;;
5955;SDS011;3004;48.080;11.600;2023-02-02T09:07:39;66.17;;;3.10;;
5955;SDS011;3004;48.080;11.600;2023-02-02T09:10:20;66.20;;;3.20;;
5955;SDS011;3004;48.080;11.600;2023-02-02T09:12:47;66.60;;;3.57;;
5955;SDS011;3004;48.080;11.600;2023-02-02T09:15:19;66.27;;;3.20;;
5955;SDS011;3004;48.080;11.600;2023-02-02T09:17:49;66.07;;;3.23;;
5955;SDS011;3004;48.080;11.600;2023-02-02T09:20:31;66.10;;;3.37;;
5955;SDS011;3004;48.080;11.600;2023-02-02T09:22:59;66.27;;;3.20;;
5955;SDS011;3004;48.080;11.600;2023-02-02T09:25:32;66.17;;;3.30;;
5955;SDS011;3004;48.080;11.600;2023-02-02T09:28:05;66.07;;;3.10;;
5955;SDS011;3004;48.080;11.600;2023-02-02T09:31:11;66.00;;;3.10;;
5955;SDS011;3004;48.080;11.600;2023-02-02T09:33:47;66.90;;;4.03;;
5955;SDS011;3004;48.080;11.600;2023-02-02T09:36:22;67.63;;;4.40;;
5955;SDS011;3004;48.080;11.600;2023-02-02T09:38:55;66.07;;;3.00;;
5955;SDS011;3004;48.080;11.600;2023-02-02T09:44:23;65.93;;;3.17;;
5955;SDS011;3004;48.080;11.600;2023-02-02T09:50:40;65.80;;;3.10;;
5955;SDS011;3004;48.080;11.600;2023-02-02T09:53:33;66.27;;;3.07;;
5955;SDS011;3004;48.080;11.600;2023-02-02T09:56:10;65.73;;;2.90;;
5955;SDS011;3004;48.080;11.600;2023-02-02T09:58:50;66.17;;;3.00;;
5955;SDS011;3004;48.080;11.600;2023-02-02T10:01:24;66.27;;;3.10;;
5955;SDS011;3004;48.080;11.600;2023-02-02T10:04:03;65.97;;;3.10;;
5955;SDS011;3004;48.080;11.600;2023-02-02T10:06:57;66.30;;;3.30;;
5955;SDS011;3004;48.080;11.600;2023-02-02T10:09:37;66.23;;;3.13;;
5955;SDS011;3004;48.080;11.600;2023-02-02T10:12:16;70.10;;;4.13;;
5955;SDS011;3004;48.080;11.600;2023-02-02T10:15:08;66.27;;;3.20;;
5955;SDS011;3004;48.080;11.600;2023-02-02T10:17:47;66.27;;;3.10;;
5955;SDS011;3004;48.080;11.600;2023-02-02T10:20:36;65.97;;;3.10;;
5955;SDS011;3004;48.080;11.600;2023-02-02T10:23:17;67.30;;;4.03;;
5955;SDS011;3004;48.080;11.600;2023-02-02T10:26:11;65.70;;;3.10;;
5955;SDS011;3004;48.080;11.600;2023-02-02T10:29:11;65.83;;;2.90;;
5955;SDS011;3004;48.080;11.600;2023-02-02T10:31:56;65.93;;;3.23;;
5955;SDS011;3004;48.080;11.600;2023-02-02T10:34:51;66.03;;;2.90;;
5955;SDS011;3004;48.080;11.600;2023-02-02T10:37:41;65.67;;;2.70;;
5955;SDS011;3004;48.080;11.600;2023-02-02T10:40:29;65.67;;;2.80;;
5955;SDS011;3004;48.080;11.600;2023-02-02T10:43:28;65.77;;;2.80;;
5955;SDS011;3004;48.080;11.600;2023-02-02T10:46:16;65.67;;;2.80;;
5955;SDS011;3004;48.080;11.600;2023-02-02T10:48:55;65.57;;;2.80;;
5955;SDS011;3004;48.080;11.600;2023-02-02T10:51:48;65.53;;;2.60;;
5955;SDS011;3004;48.080;11.600;2023-02-02T10:54:31;65.87;;;2.70;;
5955;SDS011;3004;48.080;11.600;2023-02-02T10:57:57;65.40;;;2.60;;
5955;SDS011;3004;48.080;11.600;2023-02-02T11:00:47;65.63;;;2.80;;
5955;SDS011;3004;48.080;11.600;2023-02-02T11:03:18;65.10;;;2.60;;
5955;SDS011;3004;48.080;11.600;2023-02-02T11:05:49;65.57;;;2.70;;
5955;SDS011;3004;48.080;11.600;2023-02-02T11:08:40;65.67;;;2.60;;
5955;SDS011;3004;48.080;11.600;2023-02-02T11:11:11;65.87;;;3.00;;
5955;SDS011;3004;48.080;11.600;2023-02-02T11:13:58;65.57;;;2.80;;
5955;SDS011;3004;48.080;11.600;2023-02-02T11:17:10;65.57;;;2.70;;
5955;SDS011;3004;48.080;11.600;2023-02-02T11:19:47;65.53;;;2.60;;
5955;SDS011;3004;48.080;11.600;2023-02-02T11:22:36;65.87;;;4.17;;
5955;SDS011;3004;48.080;11.600;2023-02-02T11:25:06;65.67;;;2.60;;
5955;SDS011;3004;48.080;11.600;2023-02-02T11:28:00;65.77;;;2.60;;
5955;SDS011;3004;48.080;11.600;2023-02-02T11:31:00;65.67;;;2.70;;
5955;SDS011;3004;48.080;11.600;2023-02-02T11:33:31;65.67;;;2.70;;
5955;SDS011;3004;48.080;11.600;2023-02-02T11:36:06;65.57;;;2.80;;
5955;SDS011;3004;48.080;11.600;2023-02-02T11:41:50;65.47;;;2.57;;
5955;SDS011;3004;48.080;11.600;2023-02-02T11:44:31;65.60;;;3.27;;
5955;SDS011;3004;48.080;11.600;2023-02-02T11:47:14;65.77;;;2.60;;
5955;SDS011;3004;48.080;11.600;2023-02-02T11:49:54;65.67;;;2.90;;
5955;SDS011;3004;48.080;11.600;2023-02-02T11:52:38;65.30;;;2.60;;
5955;SDS011;3004;48.080;11.600;2023-02-02T11:55:32;65.93;;;2.93;;
5955;SDS011;3004;48.080;11.600;2023-02-02T11:58:22;65.67;;;2.63;;
5955;SDS011;3004;48.080;11.600;2023-02-02T12:01:00;65.60;;;2.73;;
5955;SDS011;3004;48.080;11.600;2023-02-02T12:03:35;65.40;;;2.80;;
5955;SDS011;3004;48.080;11.600;2023-02-02T12:06:18;65.93;;;2.70;;
5955;SDS011;3004;48.080;11.600;2023-02-02T12:09:21;65.83;;;2.70;;
5955;SDS011;3004;48.080;11.600;2023-02-02T12:11:55;65.80;;;2.70;;
5955;SDS011;3004;48.080;11.600;2023-02-02T12:14:50;65.60;;;2.70;;
5955;SDS011;3004;48.080;11.600;2023-02-02T12:17:36;65.83;;;2.63;;
5955;SDS011;3004;48.080;11.600;2023-02-02T12:26:38;65.67;;;2.90;;
5955;SDS011;3004;48.080;11.600;2023-02-02T12:29:17;66.03;;;3.00;;
5955;SDS011;3004;48.080;11.600;2023-02-02T12:32:02;66.43;;;3.00;;
5955;SDS011;3004;48.080;11.600;2023-02-02T12:34:50;66.27;;;3.07;;
5955;SDS011;3004;48.080;11.600;2023-02-02T12:40:28;66.47;;;3.30;;
5955;SDS011;3004;48.080;11.600;2023-02-02T12:43:15;66.57;;;3.40;;
5955;SDS011;3004;48.080;11.600;2023-02-02T12:45:57;66.77;;;3.53;;
5955;SDS011;3004;48.080;11.600;2023-02-02T12:49:10;67.17;;;3.60;;
5955;SDS011;3004;48.080;11.600;2023-02-02T12:52:09;67.10;;;3.70;;
5955;SDS011;3004;48.080;11.600;2023-02-02T12:58:17;66.97;;;3.93;;
5955;SDS011;3004;48.080;11.600;2023-02-02T13:04:29;67.27;;;4.00;;
5955;SDS011;3004;48.080;11.600;2023-02-02T13:10:28;67.17;;;4.20;;
5955;SDS011;3004;48.080;11.600;2023-02-02T13:13:03;67.30;;;4.10;;
5955;SDS011;3004;48.080;11.600;2023-02-02T13:15:57;67.10;;;4.27;;
5955;SDS011;3004;48.080;11.600;2023-02-02T13:18:53;67.90;;;4.40;;
5955;SDS011;3004;48.080;11.600;2023-02-02T13:21:31;68.30;;;4.47;;
5955;SDS011;3004;48.080;11.600;2023-02-02T13:24:02;68.43;;;4.73;;
5955;SDS011;3004;48.080;11.600;2023-02-02T13:26:46;68.23;;;4.80;;
5955;SDS011;3004;48.080;11.600;2023-02-02T13:29:26;68.97;;;5.03;;
5955;SDS011;3004;48.080;11.600;2023-02-02T13:32:22;68.83;;;5.10;;
5955;SDS011;3004;48.080;11.600;2023-02-02T13:38:17;68.87;;;5.27;;
5955;SDS011;3004;48.080;11.600;2023-02-02T13:40:51;68.80;;;5.17;;
5955;SDS011;3004;48.080;11.600;2023-02-02T13:47:44;68.90;;;5.30;;
5955;SDS011;3004;48.080;11.600;2023-02-02T13:51:03;68.90;;;5.50;;
5955;SDS011;3004;48.080;11.600;2023-02-02T13:57:35;69.37;;;5.60;;
5955;SDS011;3004;48.080;11.600;2023-02-02T14:00:54;69.40;;;5.73;;
5955;SDS011;3004;48.080;11.600;2023-02-02T14:32:27;69.83;;;6.50;;
5955;SDS011;3004;48.080;11.600;2023-02-02T14:59:11;70.20;;;6.90;;
5955;SDS011;3004;48.080;11.600;2023-02-02T15:02:15;69.97;;;6.90;;
5955;SDS011;3004;48.080;11.600;2023-02-02T15:08:30;70.20;;;7.00;;
5955;SDS011;3004;48.080;11.600;2023-02-02T15:11:17;69.80;;;6.97;;
5955;SDS011;3004;48.080;11.600;2023-02-02T15:16:52;69.80;;;6.97;;
5955;SDS011;3004;48.080;11.600;2023-02-02T15:19:37;73.50;;;7.87;;
5955;SDS011;3004;48.080;11.600;2023-02-02T15:29:12;70.10;;;7.03;;
5955;SDS011;3004;48.080;11.600;2023-02-02T15:43:56;70.30;;;7.27;;
5955;SDS011;3004;48.080;11.600;2023-02-02T15:46:33;70.27;;;7.20;;
5955;SDS011;3004;48.080;11.600;2023-02-02T15:49:42;70.20;;;7.17;;
5955;SDS011;3004;48.080;11.600;2023-02-02T15:52:30;70.17;;;7.37;;
5955;SDS011;3004;48.080;11.600;2023-02-02T16:01:51;70.10;;;7.13;;
5955;SDS011;3004;48.080;11.600;2023-02-02T16:04:37;70.17;;;7.50;;
5955;SDS011;3004;48.080;11.600;2023-02-02T16:07:56;70.27;;;7.30;;
5955;SDS011;3004;48.080;11.600;2023-02-02T16:12:56;70.17;;;7.13;;
5955;SDS011;3004;48.080;11.600;2023-02-02T16:18:44;69.90;;;7.07;;
5955;SDS011;3004;48.080;11.600;2023-02-02T16:21:43;69.77;;;7.03;;
5955;SDS011;3004;48.080;11.600;2023-02-02T16:24:21;70.07;;;7.03;;
5955;SDS011;3004;48.080;11.600;2023-02-02T16:27:28;70.00;;;7.17;;
5955;SDS011;3004;48.080;11.600;2023-02-02T16:30:28;69.50;;;7.07;;
5955;SDS011;3004;48.080;11.600;2023-02-02T16:33:34;69.97;;;7.10;;
5955;SDS011;3004;48.080;11.600;2023-02-02T16:46:59;69.97;;;7.07;;
5955;SDS011;3004;48.080;11.600;2023-02-02T16:49:44;69.90;;;7.20;;
5955;SDS011;3004;48.080;11.600;2023-02-02T16:52:32;69.83;;;7.00;;
5955;SDS011;3004;48.080;11.600;2023-02-02T16:55:16;69.60;;;6.87;;
5955;SDS011;3004;48.080;11.600;2023-02-02T16:58:11;69.60;;;6.87;;
5955;SDS011;3004;48.080;11.600;2023-02-02T17:00:58;69.60;;;6.73;;
5955;SDS011;3004;48.080;11.600;2023-02-02T17:03:46;69.70;;;6.80;;
5955;SDS011;3004;48.080;11.600;2023-02-02T17:06:29;69.80;;;6.67;;
5955;SDS011;3004;48.080;11.600;2023-02-02T17:09:24;69.30;;;6.60;;
5955;SDS011;3004;48.080;11.600;2023-02-02T17:12:19;69.40;;;6.63;;
5955;SDS011;3004;48.080;11.600;2023-02-02T17:15:27;71.87;;;7.00;;
5955;SDS011;3004;48.080;11.600;2023-02-02T17:18:29;69.40;;;6.70;;
5955;SDS011;3004;48.080;11.600;2023-02-02T17:21:17;69.57;;;6.57;;
5955;SDS011;3004;48.080;11.600;2023-02-02T17:24:11;69.30;;;6.50;;
5955;SDS011;3004;48.080;11.600;2023-02-02T17:26:42;69.20;;;6.43;;
5955;SDS011;3004;48.080;11.600;2023-02-02T17:29:18;69.10;;;6.37;;
5955;SDS011;3004;48.080;11.600;2023-02-02T17:32:18;69.10;;;6.33;;
5955;SDS011;3004;48.080;11.600;2023-02-02T17:34:55;69.27;;;6.27;;
5955;SDS011;3004;48.080;11.600;2023-02-02T17:37:38;69.17;;;6.20;;
5955;SDS011;3004;48.080;11.600;2023-02-02T17:43:25;68.60;;;6.20;;
5955;SDS011;3004;48.080;11.600;2023-02-02T17:45:56;69.20;;;6.30;;
5955;SDS011;3004;48.080;11.600;2023-02-02T17:54:52;68.97;;;5.87;;
5955;SDS011;3004;48.080;11.600;2023-02-02T17:57:36;68.67;;;5.67;;
5955;SDS011;3004;48.080;11.600;2023-02-02T18:00:53;68.60;;;5.73;;
5955;SDS011;3004;48.080;11.600;2023-02-02T18:07:16;68.50;;;5.77;;
5955;SDS011;3004;48.080;11.600;2023-02-02T18:09:37;68.50;;;5.60;;
5955;SDS011;3004;48.080;11.600;2023-02-02T18:12:07;68.37;;;5.53;;
5955;SDS011;3004;48.080;11.600;2023-02-02T18:15:12;68.47;;;5.47;;
5955;SDS011;3004;48.080;11.600;2023-02-02T18:21:22;68.17;;;5.23;;
5955;SDS011;3004;48.080;11.600;2023-02-02T18:24:11;68.17;;;5.30;;
5955;SDS011;3004;48.080;11.600;2023-02-02T18:27:08;68.20;;;5.23;;
5955;SDS011;3004;48.080;11.600;2023-02-02T18:36:24;68.20;;;5.30;;
5955;SDS011;3004;48.080;11.600;2023-02-02T18:39:01;68.27;;;5.40;;
5955;SDS011;3004;48.080;11.600;2023-02-02T18:41:36;68.63;;;5.40;;
5955;SDS011;3004;48.080;11.600;2023-02-02T18:44:19;68.90;;;5.70;;
5955;SDS011;3004;48.080;11.600;2023-02-02T18:47:15;68.77;;;5.67;;
5955;SDS011;3004;48.080;11.600;2023-02-02T18:52:57;68.80;;;5.90;;
5955;SDS011;3004;48.080;11.600;2023-02-02T19:05:09;68.90;;;6.30;;
5955;SDS011;3004;48.080;11.600;2023-02-02T19:11:39;69.20;;;6.43;;
5955;SDS011;3004;48.080;11.600;2023-02-02T19:16:54;70.17;;;7.00;;
5955;SDS011;3004;48.080;11.600;2023-02-02T19:31:44;69.80;;;6.83;;
5955;SDS011;3004;48.080;11.600;2023-02-02T19:34:47;69.67;;;6.87;;
5955;SDS011;3004;48.080;11.600;2023-02-02T19:37:39;69.70;;;6.87;;
5955;SDS011;3004;48.080;11.600;2023-02-02T19:40:23;69.50;;;6.87;;
5955;SDS011;3004;48.080;11.600;2023-02-02T19:53:23;69.87;;;7.30;;
5955;SDS011;3004;48.080;11.600;2023-02-02T19:56:40;69.50;;;7.27;;
5955;SDS011;3004;48.080;11.600;2023-02-02T19:59:44;70.07;;;7.27;;
5955;SDS011;3004;48.080;11.600;2023-02-02T20:02:49;69.70;;;7.50;;
5955;SDS011;3004;48.080;11.600;2023-02-02T20:06:00;69.80;;;7.33;;
5955;SDS011;3004;48.080;11.600;2023-02-02T20:08:41;70.13;;;7.40;;
5955;SDS011;3004;48.080;11.600;2023-02-02T20:11:46;70.03;;;7.57;;
5955;SDS011;3004;48.080;11.600;2023-02-02T20:17:29;70.17;;;7.70;;
5955;SDS011;3004;48.080;11.600;2023-02-02T20:37:52;70.17;;;7.67;;
5955;SDS011;3004;48.080;11.600;2023-02-02T20:40:24;70.07;;;7.67;;
5955;SDS011;3004;48.080;11.600;2023-02-02T21:10:23;69.60;;;7.77;;
5955;SDS011;3004;48.080;11.600;2023-02-02T21:12:48;70.03;;;7.87;;
5955;SDS011;3004;48.080;11.600;2023-02-02T21:16:10;69.57;;;7.80;;
